Time;durP1;ratioP1;P1;durP2;ratioP2;P2;SDS_P1;SDS_P2;PMS_P1;PMS_P2;Temp;Humidity;BMP_temperature;BMP_pressure;BME280_temperature;BME280_humidity;BME280_pressure;Samples;Min_cycle;Max_cycle;Signal;HPM_P1;HPM_P2
2022/02/17 00:00:30;;;;;;;36.20;20.88;;;;;;;1.62;100.00;100929.52;1759260;81;21097;-87
2022/02/17 00:02:57;;;;;;;29.57;20.40;;;;;;;1.63;100.00;100925.25;1787003;80;21121;-89
2022/02/17 00:05:24;;;;;;;32.08;20.85;;;;;;;1.65;100.00;100922.16;1733384;81;21013;-88
2022/02/17 00:07:52;;;;;;;31.45;21.62;;;;;;;1.66;100.00;100919.56;1787172;80;21104;-89
2022/02/17 00:10:20;;;;;;;32.10;21.73;;;;;;;1.67;100.00;100914.83;1759121;81;21116;-89
2022/02/17 00:12:47;;;;;;;32.38;21.60;;;;;;;1.68;100.00;100919.05;1786469;80;21010;-87
2022/02/17 00:15:14;;;;;;;35.78;21.23;;;;;;;1.69;100.00;100910.92;1733374;81;21006;-89
2022/02/17 00:17:41;;;;;;;35.40;21.15;;;;;;;1.69;100.00;100907.89;1760625;80;20998;-87
2022/02/17 00:20:09;;;;;;;33.83;21.75;;;;;;;1.70;100.00;100904.89;1733041;81;21053;-88
2022/02/17 00:22:37;;;;;;;32.23;21.97;;;;;;;1.71;100.00;100899.70;1760282;80;21057;-88
2022/02/17 00:25:06;;;;;;;33.38;21.17;;;;;;;1.73;100.00;100900.92;1733327;81;21069;-88
2022/02/17 00:27:34;;;;;;;34.08;22.98;;;;;;;1.75;100.00;100896.58;1760195;80;21104;-87
2022/02/17 00:30:04;;;;;;;34.85;22.20;;;;;;;1.77;100.00;100892.67;1733459;81;21053;-87
2022/02/17 00:32:32;;;;;;;32.78;22.77;;;;;;;1.78;100.00;100886.65;1786902;80;21518;-87
2022/02/17 00:34:59;;;;;;;34.90;22.13;;;;;;;1.78;100.00;100888.79;1759172;81;21033;-88
2022/02/17 00:37:26;;;;;;;30.60;21.25;;;;;;;1.80;100.00;100879.73;1786883;79;21575;-87
2022/02/17 00:39:53;;;;;;;34.05;23.30;;;;;;;1.82;100.00;100874.11;1759051;81;21139;-88
2022/02/17 00:42:20;;;;;;;32.60;21.77;;;;;;;1.81;100.00;100866.84;1786789;80;21014;-88
2022/02/17 00:44:49;;;;;;;37.45;22.98;;;;;;;1.81;100.00;100855.73;1759535;81;21037;-88
2022/02/17 00:47:18;;;;;;;32.93;21.65;;;;;;;1.82;100.00;100862.09;1787026;80;21041;-87
2022/02/17 00:49:45;;;;;;;37.78;23.73;;;;;;;1.81;100.00;100862.16;1759637;81;21006;-88
2022/02/17 00:52:12;;;;;;;33.65;22.55;;;;;;;1.81;100.00;100862.98;1760343;80;21586;-87
2022/02/17 00:54:39;;;;;;;32.03;22.10;;;;;;;1.81;100.00;100856.56;1759585;81;21073;-88
2022/02/17 00:57:08;;;;;;;38.13;23.83;;;;;;;1.82;100.00;100851.00;1760654;80;21049;-87
2022/02/17 00:59:35;;;;;;;40.10;24.55;;;;;;;1.83;100.00;100851.39;1733825;81;21080;-90
2022/02/17 01:02:03;;;;;;;38.28;23.87;;;;;;;1.84;100.00;100851.80;1760398;80;21685;-90
2022/02/17 01:04:31;;;;;;;39.00;24.67;;;;;;;1.87;100.00;100849.09;1758642;81;21173;-87
2022/02/17 01:06:58;;;;;;;36.00;25.02;;;;;;;1.90;100.00;100847.72;1777337;80;21357;-88
2022/02/17 01:09:27;;;;;;;34.30;23.45;;;;;;;1.93;100.00;100839.06;1762516;81;21077;-87
2022/02/17 01:11:55;;;;;;;37.00;23.65;;;;;;;1.94;100.00;100836.43;1703818;82;21042;-87
2022/02/17 01:14:23;;;;;;;32.28;22.30;;;;;;;1.95;100.00;100832.97;1762610;81;21011;-87
2022/02/17 01:16:50;;;;;;;35.40;24.47;;;;;;;1.96;100.00;100836.40;1745881;82;21090;-88
2022/02/17 01:19:18;;;;;;;36.00;23.00;;;;;;;1.97;100.00;100832.91;1759764;81;21644;-87
2022/02/17 01:21:47;;;;;;;37.60;24.63;;;;;;;1.95;100.00;100829.13;1724257;82;21007;-87
2022/02/17 01:24:14;;;;;;;35.83;23.92;;;;;;;1.97;100.00;100830.34;1748431;82;21078;-87
2022/02/17 01:26:41;;;;;;;38.35;23.12;;;;;;;1.97;100.00;100831.20;1748128;82;21521;-88
2022/02/17 01:29:10;;;;;;;33.95;22.60;;;;;;;1.98;100.00;100826.88;1753653;81;21156;-89
2022/02/17 01:31:37;;;;;;;35.30;24.07;;;;;;;1.97;100.00;100831.20;1761173;81;21114;-87
2022/02/17 01:34:12;;;;;;;38.48;24.63;;;;;;;1.98;100.00;100839.30;1761344;81;21050;-87
2022/02/17 01:36:42;;;;;;;34.03;23.47;;;;;;;1.98;100.00;100832.88;1733100;81;21305;-90
2022/02/17 01:39:09;;;;;;;37.90;23.90;;;;;;;1.97;100.00;100841.47;1738523;81;21099;-91
2022/02/17 01:41:38;;;;;;;37.08;24.60;;;;;;;1.97;100.00;100841.47;1739293;81;21097;-87
2022/02/17 01:44:09;;;;;;;37.80;25.20;;;;;;;1.99;100.00;100844.83;1758067;81;21568;-87
2022/02/17 01:46:40;;;;;;;33.23;23.27;;;;;;;2.01;100.00;100844.77;1761398;81;21110;-87
2022/02/17 01:49:11;;;;;;;38.58;24.50;;;;;;;2.02;100.00;100841.31;1711997;81;21003;-87
2022/02/17 01:51:39;;;;;;;;;;;;;;;2.01;100.00;100841.73;1738880;82;21044;-86
2022/02/17 01:54:12;;;;;;;39.03;25.10;;;;;;;2.03;100.00;100851.52;1748328;81;21113;-88
2022/02/17 01:56:42;;;;;;;36.15;23.52;;;;;;;2.03;100.00;100849.41;1748607;82;21040;-90
2022/02/17 01:59:11;;;;;;;40.52;26.07;;;;;;;2.03;100.00;100844.27;1754734;81;21094;-86
2022/02/17 02:01:46;;;;;;;37.17;25.08;;;;;;;2.03;100.00;100842.53;1747273;81;21008;-87
2022/02/17 02:04:13;;;;;;;39.80;24.07;;;;;;;2.03;100.00;100837.85;1764476;81;21021;-86
2022/02/17 02:06:41;;;;;;;38.80;25.50;;;;;;;2.05;100.00;100833.47;1741619;81;21130;-87
2022/02/17 02:09:11;;;;;;;33.05;23.45;;;;;;;2.07;100.00;100838.58;1750991;81;21022;-86
2022/02/17 02:11:59;;;;;;;39.60;25.40;;;;;;;2.09;100.00;100835.48;1759950;81;20971;-86
2022/02/17 02:14:26;;;;;;;42.48;27.10;;;;;;;2.11;100.00;100838.84;1714496;81;21825;-88
2022/02/17 02:16:55;;;;;;;39.23;25.77;;;;;;;2.12;100.00;100841.38;1739794;81;21131;-87
2022/02/17 02:19:23;;;;;;;39.18;25.80;;;;;;;2.13;100.00;100830.19;1757276;81;21134;-87
2022/02/17 02:21:52;;;;;;;39.40;26.82;;;;;;;2.14;100.00;100831.86;1746069;82;21108;-88
2022/02/17 02:24:19;;;;;;;40.63;26.52;;;;;;;2.18;100.00;100837.73;1749693;82;21037;-88
2022/02/17 02:26:46;;;;;;;35.92;25.75;;;;;;;2.18;100.00;100837.73;1749607;82;21081;-88
2022/02/17 02:29:15;;;;;;;36.20;25.20;;;;;;;2.20;100.00;100833.37;1729835;81;21027;-87
2022/02/17 02:31:42;;;;;;;37.17;25.45;;;;;;;2.22;100.00;100826.45;1751860;80;21199;-87
2022/02/17 02:34:09;;;;;;;34.08;24.77;;;;;;;2.25;100.00;100822.47;1736347;80;21378;-87
2022/02/17 02:36:38;;;;;;;35.05;24.52;;;;;;;2.26;100.00;100817.72;1760126;80;20989;-87
2022/02/17 02:39:05;;;;;;;33.13;22.22;;;;;;;2.29;100.00;100812.91;1760060;80;20982;-87
2022/02/17 02:41:34;;;;;;;30.32;22.32;;;;;;;2.32;100.00;100812.81;1734493;81;21021;-87
2022/02/17 02:44:01;;;;;;;32.60;23.00;;;;;;;2.34;100.00;100808.45;1759887;80;21118;-88
2022/02/17 02:46:30;;;;;;;32.17;22.87;;;;;;;2.38;100.00;100803.58;1760408;80;21512;-87
2022/02/17 02:48:59;;;;;;;30.68;22.62;;;;;;;2.41;100.00;100810.33;1732672;81;21020;-87
2022/02/17 02:51:26;;;;;;;28.17;21.07;;;;;;;2.46;100.00;100810.55;1760317;80;21043;-87
2022/02/17 02:53:53;;;;;;;30.05;21.62;;;;;;;2.48;100.00;100805.38;1736068;81;21009;-88
2022/02/17 02:56:22;;;;;;;29.20;20.82;;;;;;;2.52;100.00;100811.59;1736439;81;21506;-88
2022/02/17 02:58:51;;;;;;;30.40;21.73;;;;;;;2.52;100.00;100805.17;1712355;81;21047;-88
2022/02/17 03:01:21;;;;;;;32.50;21.40;;;;;;;2.51;100.00;100798.81;1760309;80;21019;-88
2022/02/17 03:03:50;;;;;;;32.33;22.15;;;;;;;2.47;100.00;100794.23;1759830;80;21411;-92
2022/02/17 03:06:18;;;;;;;30.50;22.02;;;;;;;2.48;100.00;100803.63;1759868;80;21044;-89
2022/02/17 03:08:46;;;;;;;34.70;21.90;;;;;;;2.45;100.00;100800.34;1759821;80;21116;-88
2022/02/17 03:11:17;;;;;;;27.52;20.20;;;;;;;2.39;100.00;100797.55;1759758;80;21095;-88
2022/02/17 03:13:44;;;;;;;32.42;21.65;;;;;;;2.39;100.00;100797.55;1736217;81;21025;-87
2022/02/17 03:16:11;;;;;;;37.90;22.17;;;;;;;2.36;100.00;100793.83;1736708;81;21534;-87
2022/02/17 03:18:39;;;;;;;33.98;23.12;;;;;;;2.33;100.00;100792.64;1736087;81;21626;-86
2022/02/17 03:21:08;;;;;;;30.60;23.35;;;;;;;2.25;100.00;100785.20;1749860;80;21210;-88
2022/02/17 03:23:35;;;;;;;39.90;24.30;;;;;;;2.25;100.00;100785.20;1736758;81;21040;-88
2022/02/17 03:26:03;;;;;;;35.10;23.83;;;;;;;2.20;100.00;100775.56;1728769;82;21018;-86
2022/02/17 03:28:31;;;;;;;39.98;26.52;;;;;;;2.20;100.00;100775.56;1702769;82;21006;-87
2022/02/17 03:31:03;;;;;;;37.30;25.95;;;;;;;2.16;100.00;100768.42;1736717;81;21088;-87
2022/02/17 03:33:30;;;;;;;37.93;26.80;;;;;;;2.16;100.00;100768.42;1760819;81;21150;-88
2022/02/17 03:35:59;;;;;;;44.83;28.87;;;;;;;2.16;100.00;100769.70;1759236;80;21009;-86
2022/02/17 03:38:26;;;;;;;40.17;27.60;;;;;;;2.15;100.00;100764.17;1745756;81;21069;-89
2022/02/17 03:40:55;;;;;;;44.88;29.32;;;;;;;2.11;100.00;100754.06;1739869;81;21026;-90
2022/02/17 03:43:24;;;;;;;45.70;28.55;;;;;;;2.11;100.00;100757.48;1760124;81;20998;-91
2022/02/17 03:45:51;;;;;;;50.28;30.82;;;;;;;2.09;100.00;100754.13;1742600;81;21087;-93
2022/02/17 03:48:18;;;;;;;46.95;29.80;;;;;;;2.09;100.00;100754.13;1741816;81;21879;-90
2022/02/17 03:50:48;;;;;;;49.00;31.02;;;;;;;2.07;100.00;100745.63;1760072;81;21578;-90
2022/02/17 03:53:16;;;;;;;43.28;27.50;;;;;;;2.06;100.00;100741.39;1763238;81;21018;-87
2022/02/17 03:55:48;;;;;;;44.48;28.35;;;;;;;2.06;100.00;100729.83;1739205;81;21066;-89
2022/02/17 03:59:00;;;;;;;45.50;27.00;;;;;;;2.06;100.00;100729.83;1742014;81;21114;-87
2022/02/17 04:00:46;;;;;;;46.50;28.35;;;;;;;2.06;100.00;100728.55;1756890;81;21101;-88
2022/02/17 04:03:13;;;;;;;41.70;26.60;;;;;;;2.08;100.00;100716.48;1741914;81;21037;-87
2022/02/17 04:05:41;;;;;;;40.20;26.25;;;;;;;2.10;100.00;100712.13;1742187;81;21113;-89
2022/02/17 04:08:10;;;;;;;40.08;26.05;;;;;;;2.12;100.00;100712.92;1763062;81;21375;-89
2022/02/17 04:10:38;;;;;;;40.75;28.15;;;;;;;2.13;100.00;100704.29;1738813;81;21108;-90
2022/02/17 04:13:08;;;;;;;40.45;25.70;;;;;;;2.13;100.00;100704.29;1739764;81;21532;-92
2022/02/17 04:15:41;;;;;;;38.98;25.55;;;;;;;2.19;100.00;100707.08;1757764;80;21670;-88
2022/02/17 04:18:09;;;;;;;38.85;26.57;;;;;;;2.19;100.00;100707.08;1756204;80;21136;-89
2022/02/17 04:20:41;;;;;;;35.08;25.50;;;;;;;2.24;100.00;100706.91;1774926;80;21046;-89
2022/02/17 04:23:10;;;;;;;38.35;25.00;;;;;;;2.25;100.00;100698.30;1784104;79;21149;-89
2022/02/17 04:25:39;;;;;;;36.40;25.62;;;;;;;2.26;100.00;100693.55;1788008;79;21040;-89
2022/02/17 04:28:12;;;;;;;38.42;24.63;;;;;;;2.29;100.00;100678.85;1759927;80;21061;-93
2022/02/17 04:30:40;;;;;;;38.23;24.80;;;;;;;2.29;100.00;100678.85;1787516;79;21530;-90
2022/02/17 04:33:08;;;;;;;37.42;24.43;;;;;;;2.29;100.00;100675.42;1706851;81;21574;-88
2022/02/17 04:35:38;;;;;;;36.73;25.08;;;;;;;2.29;100.00;100675.42;1753468;81;21352;-89
2022/02/17 04:38:05;;;;;;;40.40;26.17;;;;;;;2.26;100.00;100670.43;1776357;80;21050;-89
2022/02/17 04:43:19;;;;;;;43.23;24.80;;;;;;;2.35;100.00;100667.03;1788301;79;21038;-86
2022/02/17 04:45:47;;;;;;;41.10;24.98;;;;;;;2.35;100.00;100667.03;1788242;79;21045;-88
2022/02/17 04:48:15;;;;;;;48.63;24.47;;;;;;;2.47;100.00;100664.42;1788381;79;21837;-88
2022/02/17 04:50:42;;;;;;;58.25;26.40;;;;;;;2.58;100.00;100667.84;1750670;81;20999;-85
2022/02/17 04:53:09;;;;;;;42.03;25.68;;;;;;;2.63;100.00;100656.93;1723218;83;21077;-84
2022/02/17 04:55:38;;;;;;;42.45;26.62;;;;;;;2.67;100.00;100661.50;1713643;83;21007;-85
2022/02/17 04:58:06;;;;;;;45.58;26.68;;;;;;;2.67;100.00;100661.50;1741565;81;21051;-79
2022/02/17 05:00:33;;;;;;;45.60;26.68;;;;;;;2.69;100.00;100655.81;1736504;81;21953;-81
2022/02/17 05:03:06;;;;;;;39.90;25.32;;;;;;;2.69;100.00;100655.81;1695912;81;21095;-84
2022/02/17 05:05:35;;;;;;;38.02;26.05;;;;;;;2.68;100.00;100650.31;1744510;81;21026;-84
2022/02/17 05:08:05;;;;;;;40.98;27.13;;;;;;;2.57;100.00;100647.34;1732049;81;38875;-90
2022/02/17 05:10:35;;;;;;;39.27;25.68;;;;;;;2.46;100.00;100655.03;1732752;81;21554;-86
2022/02/17 05:13:03;;;;;;;40.00;24.87;;;;;;;2.36;100.00;100648.15;1757214;81;21159;-89
2022/02/17 05:15:30;;;;;;;38.85;25.08;;;;;;;2.29;100.00;100639.45;1748467;80;21579;-91
2022/02/17 05:17:59;;;;;;;40.85;24.40;;;;;;;2.25;100.00;100639.20;1754495;81;21047;-91
2022/02/17 05:20:26;;;;;;;42.08;26.50;;;;;;;2.17;100.00;100631.35;1742253;81;21080;-88
2022/02/17 05:23:12;;;;;;;42.27;26.30;;;;;;;2.17;100.00;100637.78;1732214;81;21727;-89
2022/02/17 05:25:58;;;;;;;40.00;26.00;;;;;;;2.14;100.00;100631.46;1749413;81;21390;-86
2022/02/17 05:28:44;;;;;;;41.50;26.85;;;;;;;2.12;100.00;100630.71;1758241;81;21625;-88
2022/02/17 05:31:30;;;;;;;43.35;26.42;;;;;;;2.10;100.00;100622.22;1732209;81;21764;-88
2022/02/17 05:46:29;;;;;;;32.75;24.15;;;;;;;2.28;100.00;100580.81;1784804;80;21672;-91
2022/02/17 05:48:58;;;;;;;39.45;25.90;;;;;;;2.27;100.00;100581.70;1767443;80;21055;-88
2022/02/17 05:51:25;;;;;;;35.92;24.20;;;;;;;2.25;100.00;100577.53;1722798;82;21288;-90
2022/02/17 05:53:53;;;;;;;35.43;24.27;;;;;;;2.25;100.00;100587.81;1748699;81;21132;-89
2022/02/17 05:56:20;;;;;;;34.43;23.60;;;;;;;2.21;100.00;100581.96;1732947;81;21504;-87
2022/02/17 05:58:47;;;;;;;34.43;22.87;;;;;;;2.16;100.00;100571.88;1712491;82;21103;-90
2022/02/17 06:01:17;;;;;;;36.53;24.87;;;;;;;2.15;100.00;100571.48;1751489;81;21046;-91
2022/02/17 06:03:46;;;;;;;34.75;22.85;;;;;;;2.15;100.00;100571.48;1778983;80;21200;-89
2022/02/17 06:06:16;;;;;;;34.15;23.55;;;;;;;2.13;100.00;100568.13;1763015;81;21077;-90
2022/02/17 06:08:44;;;;;;;32.28;21.10;;;;;;;2.15;100.00;100574.52;1756628;81;21037;-91
2022/02/17 06:11:13;;;;;;;38.42;22.07;;;;;;;2.13;100.00;100564.73;1778882;80;21159;-92
2022/02/17 06:13:40;;;;;;;35.45;23.18;;;;;;;2.13;100.00;100562.17;1746372;81;21101;-91
2022/02/17 06:16:07;;;;;;;34.63;21.50;;;;;;;2.11;100.00;100555.81;1762743;81;21634;-90
2022/02/17 06:18:36;;;;;;;31.40;20.57;;;;;;;2.11;100.00;100555.81;1778467;80;20986;-90
2022/02/17 06:21:03;;;;;;;30.02;20.50;;;;;;;2.14;100.00;100559.52;1763368;81;21014;-89
2022/02/17 06:23:32;;;;;;;32.25;20.80;;;;;;;2.14;100.00;100561.27;1779072;80;21467;-92
2022/02/17 06:26:03;;;;;;;33.33;20.45;;;;;;;2.14;100.00;100558.70;1763256;81;21547;-93
2022/02/17 06:28:30;;;;;;;30.08;19.45;;;;;;;2.13;100.00;100552.71;1746651;82;21161;-92
2022/02/17 06:31:00;;;;;;;30.48;20.12;;;;;;;2.10;100.00;100541.30;1778923;80;21541;-89
2022/02/17 06:33:28;;;;;;;;;;;;;;;2.10;100.00;100541.30;1749451;81;21065;-91
2022/02/17 06:35:57;;;;;;;31.75;18.60;;;;;;;2.13;100.00;100540.33;1748142;82;20444;-85
2022/02/17 06:38:26;;;;;;;28.87;18.85;;;;;;;2.13;100.00;100539.05;1763391;81;21567;-92
2022/02/17 06:40:53;;;;;;;27.98;19.30;;;;;;;2.14;100.00;100538.16;1779268;79;21033;-89
2022/02/17 06:43:23;;;;;;;26.27;18.30;;;;;;;2.14;100.00;100529.98;1763130;81;21077;-91
2022/02/17 06:45:50;;;;;;;31.12;18.70;;;;;;;2.16;100.00;100521.77;1778712;80;21031;-90
2022/02/17 06:48:19;;;;;;;27.55;18.02;;;;;;;2.17;100.00;100520.88;1762606;81;20956;-92
2022/02/17 06:50:48;;;;;;;29.10;19.15;;;;;;;2.18;100.00;100519.98;1778220;79;21077;-88
2022/02/17 06:53:16;;;;;;;30.77;20.12;;;;;;;2.18;100.00;100512.27;1762769;81;21567;-91
2022/02/17 06:55:47;;;;;;;28.73;18.95;;;;;;;2.20;100.00;100508.34;1780079;80;21065;-92
2022/02/17 06:58:16;;;;;;;28.12;18.75;;;;;;;2.20;100.00;100502.74;1762760;81;21572;-90
2022/02/17 07:00:43;;;;;;;28.80;19.05;;;;;;;2.24;100.00;100488.49;1778135;79;21052;-88
2022/02/17 07:03:10;;;;;;;29.02;20.05;;;;;;;2.26;100.00;100486.23;1727939;81;21013;-90
2022/02/17 07:05:38;;;;;;;32.40;20.20;;;;;;;2.27;100.00;100480.67;1746007;81;21464;-86
2022/02/17 07:08:05;;;;;;;29.72;21.15;;;;;;;2.29;100.00;100483.55;1774864;80;21671;-90
2022/02/17 07:13:20;;;;;;;30.30;20.15;;;;;;;2.30;100.00;100471.52;1782245;79;21033;-92
2022/02/17 07:15:50;;;;;;;29.60;19.95;;;;;;;2.30;100.00;100471.52;1762132;80;21746;-86
2022/02/17 07:18:19;;;;;;;27.77;19.82;;;;;;;2.34;100.00;100478.22;1785082;79;21167;-93
2022/02/17 07:20:49;;;;;;;27.85;19.12;;;;;;;2.36;100.00;100468.72;1774234;79;21491;-91
2022/02/17 07:23:20;;;;;;;27.52;19.32;;;;;;;2.39;100.00;100460.85;1726249;81;21045;-91
2022/02/17 07:25:49;;;;;;;27.50;19.32;;;;;;;2.42;100.00;100465.88;1759019;80;21046;-91
2022/02/17 07:28:22;;;;;;;30.60;20.50;;;;;;;2.48;100.00;100459.17;1767553;80;21059;-90
2022/02/17 07:30:52;;;;;;;29.67;18.70;;;;;;;2.53;100.00;100453.37;1729353;81;21866;-94
2022/02/17 07:33:23;;;;;;;29.82;19.52;;;;;;;2.60;100.00;100445.41;1729345;81;21064;-90
2022/02/17 07:35:54;;;;;;;27.95;19.70;;;;;;;2.65;100.00;100437.02;1767791;80;21036;-90
2022/02/17 07:38:23;;;;;;;27.32;19.57;;;;;;;2.70;100.00;100431.22;1748641;80;20982;-92
2022/02/17 07:40:53;;;;;;;28.50;20.23;;;;;;;2.75;100.00;100437.00;1757127;81;21068;-90
2022/02/17 07:43:20;;;;;;;28.02;19.65;;;;;;;2.80;100.00;100424.76;1731481;81;21146;-89
2022/02/17 07:45:50;;;;;;;29.48;19.52;;;;;;;2.85;100.00;100415.55;1772110;80;21031;-91
2022/02/17 07:48:18;;;;;;;28.30;19.45;;;;;;;2.91;100.00;100430.69;1742739;81;21018;-91
2022/02/17 07:50:49;;;;;;;26.12;18.48;;;;;;;2.91;100.00;100430.69;1776533;80;21096;-91
2022/02/17 07:53:20;;;;;;;27.50;19.30;;;;;;;2.96;100.00;100418.91;1721632;81;21033;-94
2022/02/17 07:55:48;;;;;;;;;;;;;;;2.96;100.00;100418.91;1736806;80;22319;-92
2022/02/17 07:58:17;;;;;;;30.40;19.87;;;;;;;3.00;100.00;100412.27;1742114;81;20158;-91
2022/02/17 08:00:45;;;;;;;32.75;20.60;;;;;;;3.03;100.00;100406.60;1785647;80;20990;-89
2022/02/17 08:03:13;;;;;;;31.50;20.95;;;;;;;3.07;100.00;100396.53;1752995;80;21009;-91
2022/02/17 08:05:45;;;;;;;28.57;18.95;;;;;;;3.09;100.00;100398.12;1789293;80;21018;-92
2022/02/17 08:08:17;;;;;;;31.60;20.72;;;;;;;3.10;100.00;100389.97;1788963;80;21791;-92
2022/02/17 08:10:45;;;;;;;31.40;20.62;;;;;;;3.13;100.00;100397.08;1789413;80;21049;-90
2022/02/17 08:13:19;;;;;;;32.95;20.40;;;;;;;3.20;100.00;100389.06;1764863;80;21085;-94
2022/02/17 08:15:52;;;;;;;30.05;19.77;;;;;;;3.23;100.00;100388.46;1783069;80;21025;-90
2022/02/17 08:18:22;;;;;;;30.65;19.50;;;;;;;3.29;100.00;100384.77;1786419;78;21044;-92
2022/02/17 08:20:50;;;;;;;31.80;21.25;;;;;;;3.36;100.00;100378.88;1763968;80;21832;-89
2022/02/17 08:23:36;;;;;;;;;;;;;;;;;;;;;
2022/02/17 08:26:01;;;;;;;29.27;20.47;;;;;;;3.53;100.00;100377.57;1785970;79;20998;-92
2022/02/17 08:28:30;;;;;;;27.52;19.10;;;;;;;3.62;100.00;100366.81;1771062;80;21184;-92
2022/02/17 08:30:59;;;;;;;28.67;20.45;;;;;;;3.69;100.00;100373.80;1764171;80;21455;-90
2022/02/17 08:33:28;;;;;;;30.17;17.95;;;;;;;3.75;100.00;100369.61;1762612;80;21110;-94
2022/02/17 08:35:56;;;;;;;31.95;19.55;;;;;;;3.80;100.00;100355.22;1764079;80;21120;-89
2022/02/17 08:38:31;;;;;;;27.98;19.40;;;;;;;3.86;100.00;100344.59;1788987;80;21515;-95
2022/02/17 08:40:54;;;;;;;28.42;19.65;;;;;;;3.92;100.00;100339.15;1785411;80;21041;-91
2022/02/17 08:43:24;;;;;;;28.38;18.80;;;;;;;4.01;100.00;100343.41;1788516;80;21006;-93
2022/02/17 08:45:53;;;;;;;30.30;19.25;;;;;;;4.09;100.00;100323.23;1758559;81;21988;-95
2022/02/17 08:48:21;;;;;;;33.33;19.12;;;;;;;4.20;100.00;100314.96;1769576;79;20938;-88
2022/02/17 08:50:48;;;;;;;30.32;18.65;;;;;;;4.31;100.00;100303.59;1769529;79;20996;-89
2022/02/17 08:53:22;;;;;;;28.55;19.05;;;;;;;4.44;100.00;100281.04;1743569;80;21029;-86
2022/02/17 08:55:50;;;;;;;26.75;18.52;;;;;;;4.54;100.00;100288.62;1779972;79;21036;-87
2022/02/17 08:58:18;;;;;;;25.45;17.02;;;;;;;4.66;100.00;100290.53;1749848;80;21064;-85
2022/02/17 09:00:45;;;;;;;24.67;17.27;;;;;;;4.71;100.00;100279.50;1786509;79;21578;-85
2022/02/17 09:03:12;;;;;;;26.62;18.65;;;;;;;4.78;100.00;100282.57;1763572;80;20981;-86
2022/02/17 09:05:41;;;;;;;23.55;16.32;;;;;;;4.83;100.00;100280.55;1727556;82;20997;-86
2022/02/17 09:08:09;;;;;;;28.35;17.73;;;;;;;4.92;100.00;100271.48;1742956;81;21454;-94
2022/02/17 09:10:37;;;;;;;29.95;18.05;;;;;;;5.08;100.00;100277.87;1734942;81;21060;-96
2022/02/17 09:13:04;;;;;;;33.20;18.12;;;;;;;5.25;100.00;100269.13;1746541;81;21495;-96
2022/02/17 09:15:32;;;;;;;30.75;17.35;;;;;;;5.43;100.00;100258.66;1747989;80;21708;-96
2022/02/17 09:18:00;;;;;;;27.70;17.20;;;;;;;5.59;100.00;100251.66;1734892;81;21057;-93
2022/02/17 09:20:29;;;;;;;30.08;17.07;;;;;;;5.77;100.00;100250.17;1756885;80;21067;-90
2022/02/17 09:22:56;;;;;;;26.50;16.32;;;;;;;5.90;100.00;100236.05;1760642;80;21094;-93
2022/02/17 09:25:24;;;;;;;23.07;16.50;;;;;;;5.98;100.00;100241.09;1732100;80;21613;-94
2022/02/17 09:27:52;;;;;;;27.70;15.38;;;;;;;6.02;100.00;100218.50;1749315;81;21067;-96
2022/02/17 09:30:19;;;;;;;32.28;15.38;;;;;;;6.04;100.00;100223.60;1743862;81;21014;-92
2022/02/17 09:32:48;;;;;;;25.68;15.70;;;;;;;6.07;100.00;100242.33;1775686;79;21103;-84
2022/02/17 09:35:16;;;;;;;23.98;15.58;;;;;;;6.10;100.00;100234.84;1782690;79;21034;-85
2022/02/17 09:37:43;;;;;;;23.90;15.78;;;;;;;6.14;100.00;100235.00;1801135;78;21581;-86
2022/02/17 09:40:11;;;;;;;20.95;14.95;;;;;;;6.14;100.00;100229.39;1796107;78;21025;-89
2022/02/17 09:42:41;;;;;;;21.75;14.45;;;;;;;6.14;100.00;100220.78;1783466;80;20994;-88
2022/02/17 09:45:10;;;;;;;22.32;14.25;;;;;;;6.13;100.00;100219.97;1771511;78;21502;-88
2022/02/17 09:47:40;;;;;;;20.70;13.88;;;;;;;6.12;100.00;100200.69;1760767;80;21967;-90
2022/02/17 09:50:12;;;;;;;21.37;13.65;;;;;;;6.10;100.00;100205.11;1759681;80;21120;-88
2022/02/17 09:52:42;;;;;;;21.45;13.98;;;;;;;6.09;100.00;100201.68;1762707;80;21522;-87
2022/02/17 09:55:12;;;;;;;21.57;14.35;;;;;;;6.09;100.00;100195.70;1760181;80;20986;-88
2022/02/17 09:57:41;;;;;;;23.50;14.15;;;;;;;6.11;100.00;100193.85;1720026;82;21045;-87
2022/02/17 10:00:12;;;;;;;20.48;13.93;;;;;;;6.12;100.00;100187.76;1746973;80;21144;-89
2022/02/17 10:02:42;;;;;;;25.68;14.35;;;;;;;6.12;100.00;100193.74;1747513;81;21029;-88
2022/02/17 10:05:15;;;;;;;20.02;14.15;;;;;;;6.15;100.00;100188.84;1740419;80;21048;-86
2022/02/17 10:07:44;;;;;;;21.45;13.88;;;;;;;6.15;100.00;100173.33;1745450;80;21120;-89
2022/02/17 10:10:23;;;;;;;17.62;13.43;;;;;;;6.16;100.00;100169.81;1741975;80;21549;-87
2022/02/17 10:13:01;;;;;;;21.42;13.35;;;;;;;6.19;100.00;100150.69;1735499;80;22054;-88
2022/02/17 10:15:36;;;;;;;17.70;13.03;;;;;;;6.21;100.00;100135.91;1722120;81;21104;-87
2022/02/17 10:18:14;;;;;;;;;;;;;;;6.21;100.00;100135.91;1724690;82;21151;-89
2022/02/17 10:21:13;;;;;;;18.85;13.28;;;;;;;6.22;100.00;100139.69;1735651;81;20210;-89
2022/02/17 10:23:52;;;;;;;19.57;12.95;;;;;;;6.22;100.00;100126.75;1723587;81;21575;-90
2022/02/17 10:26:24;;;;;;;19.20;13.72;;;;;;;6.21;100.00;100126.86;1719501;82;21173;-87
2022/02/17 10:28:57;;;;;;;;;;;;;;;6.22;100.00;100122.06;1749322;80;20947;-87
2022/02/17 10:31:28;;;;;;;24.15;14.05;;;;;;;6.24;100.00;100113.75;1742963;80;20195;-87
2022/02/17 10:33:57;;;;;;;21.70;13.80;;;;;;;6.28;100.00;100099.68;1724329;81;22041;-91
2022/02/17 10:36:39;;;;;;;22.48;13.53;;;;;;;6.34;100.00;100086.82;1745925;80;20971;-91
2022/02/17 10:39:26;;;;;;;20.37;13.65;;;;;;;6.39;100.00;100081.72;1743645;80;21915;-86
2022/02/17 10:41:59;;;;;;;20.97;13.80;;;;;;;6.45;100.00;100089.06;1734367;81;21051;-87
2022/02/17 10:44:34;;;;;;;22.60;14.05;;;;;;;6.53;100.00;100074.78;1753965;80;21076;-88
2022/02/17 10:47:15;;;;;;;21.62;13.85;;;;;;;6.57;100.00;100068.02;1747472;80;20975;-87
2022/02/17 10:49:53;;;;;;;17.12;12.15;;;;;;;6.58;100.00;100056.73;1747081;80;21072;-89
2022/02/17 10:52:36;;;;;;;20.45;12.90;;;;;;;6.61;100.00;100056.51;1730921;81;21107;-89
2022/02/17 10:55:20;;;;;;;19.70;12.73;;;;;;;6.63;100.00;100063.71;1764908;80;21014;-86
2022/02/17 10:57:48;;;;;;;19.30;12.50;;;;;;;6.65;100.00;100048.08;1781581;79;21009;-87
2022/02/17 11:00:22;;;;;;;21.73;13.13;;;;;;;6.67;100.00;100045.41;1757699;80;21018;-86
2022/02/17 11:02:51;;;;;;;18.52;12.68;;;;;;;6.68;100.00;100034.94;1779046;80;21088;-87
2022/02/17 11:05:19;;;;;;;20.95;12.95;;;;;;;6.71;100.00;100030.02;1759744;80;21848;-86
2022/02/17 11:07:49;;;;;;;19.23;12.65;;;;;;;6.72;100.00;100018.74;1758425;80;21058;-86
2022/02/17 11:10:16;;;;;;;20.17;12.78;;;;;;;6.73;100.00;100012.16;1749615;80;21014;-85
2022/02/17 11:12:46;;;;;;;20.17;13.18;;;;;;;6.75;100.00;100012.08;1755414;81;21070;-86
2022/02/17 11:15:13;;;;;;;24.37;12.90;;;;;;;6.78;100.00;99998.45;1776209;80;21036;-93
2022/02/17 11:17:43;;;;;;;20.80;13.05;;;;;;;6.80;100.00;99997.05;1775215;80;21045;-89
2022/02/17 11:20:21;;;;;;;18.80;12.05;;;;;;;6.83;100.00;99996.00;1785455;79;21143;-84
2022/02/17 11:22:50;;;;;;;18.42;12.58;;;;;;;6.84;100.00;99990.73;1757035;81;21102;-86
2022/02/17 11:25:33;;;;;;;18.70;12.15;;;;;;;6.85;100.00;99989.78;1762104;79;21067;-87
2022/02/17 11:28:07;;;;;;;15.75;11.63;;;;;;;6.86;100.00;99973.80;1760073;81;21045;-87
2022/02/17 11:30:37;;;;;;;19.17;12.03;;;;;;;6.87;100.00;99965.92;1718793;82;21186;-87
2022/02/17 11:33:32;;;;;;;16.77;12.37;;;;;;;6.89;100.00;99958.07;1751088;81;21613;-90
2022/02/17 11:36:24;;;;;;;19.98;13.05;;;;;;;6.90;100.00;99947.59;1754914;80;21041;-85
2022/02/17 11:39:09;;;;;;;16.55;12.47;;;;;;;6.92;100.00;99947.48;1729071;82;21131;-88
2022/02/17 11:41:38;;;;;;;21.85;13.28;;;;;;;6.93;100.00;99959.02;1744418;81;21572;-84